createdAt,value
2019-03-22T00:00:36.930Z,37.03
2019-03-22T00:03:06.132Z,37.75
2019-03-22T00:05:35.186Z,37.42
2019-03-22T00:08:04.240Z,36.63
2019-03-22T00:10:33.290Z,38.28
2019-03-22T00:13:02.377Z,44.05
2019-03-22T00:15:31.427Z,37.45
2019-03-22T00:18:00.557Z,38.75
2019-03-22T00:20:29.608Z,36.15
2019-03-22T00:22:58.676Z,40.15
2019-03-22T00:25:27.741Z,37.40
2019-03-22T00:27:56.947Z,39.35
2019-03-22T00:30:25.997Z,40.88
2019-03-22T00:32:55.073Z,38.95
2019-03-22T00:35:24.111Z,37.00
2019-03-22T00:37:53.193Z,34.50
2019-03-22T00:40:22.242Z,33.45
2019-03-22T00:42:51.363Z,33.45
2019-03-22T00:45:20.421Z,38.08
2019-03-22T00:47:49.483Z,37.08
2019-03-22T00:50:18.533Z,39.35
2019-03-22T00:52:47.593Z,38.95
2019-03-22T00:55:16.659Z,36.70
2019-03-22T00:57:45.703Z,38.00
2019-03-22T01:00:15.801Z,33.92
2019-03-22T01:02:44.877Z,42.88
2019-03-22T01:05:14.476Z,41.37
2019-03-22T01:07:43.675Z,41.23
2019-03-22T01:10:13.845Z,33.10
2019-03-22T01:12:42.894Z,36.55
2019-03-22T01:15:13.298Z,34.43
2019-03-22T01:17:42.821Z,39.10
2019-03-22T01:20:12.631Z,35.90
2019-03-22T01:22:41.731Z,38.92
2019-03-22T01:25:11.104Z,35.53
2019-03-22T01:27:41.286Z,37.75
2019-03-22T01:30:16.194Z,34.83
2019-03-22T01:32:45.306Z,37.95
2019-03-22T01:35:14.242Z,35.53
2019-03-22T01:37:43.289Z,39.20
2019-03-22T01:40:14.907Z,40.60
2019-03-22T01:42:44.101Z,37.13
2019-03-22T01:45:15.456Z,38.17
2019-03-22T01:47:44.587Z,40.48
2019-03-22T01:50:15.288Z,39.23
2019-03-22T01:52:44.358Z,42.38
2019-03-22T01:55:13.671Z,41.53
2019-03-22T01:57:52.510Z,37.80
2019-03-22T02:00:15.377Z,40.70
2019-03-22T02:02:43.996Z,39.37
2019-03-22T02:05:13.732Z,39.75
2019-03-22T02:07:42.790Z,39.65
2019-03-22T02:10:12.754Z,41.02
2019-03-22T02:12:41.564Z,40.03
2019-03-22T02:15:14.520Z,41.80
2019-03-22T02:17:44.109Z,36.70
2019-03-22T02:20:15.304Z,42.27
2019-03-22T02:22:44.235Z,40.53
2019-03-22T02:25:13.772Z,42.10
2019-03-22T02:27:43.328Z,45.38
2019-03-22T02:30:16.777Z,39.53
2019-03-22T02:32:45.403Z,43.03
2019-03-22T02:35:27.503Z,39.23
2019-03-22T02:37:44.413Z,37.63
2019-03-22T02:40:13.636Z,37.17
2019-03-22T02:42:42.261Z,36.07
2019-03-22T02:45:12.666Z,37.83
2019-03-22T02:47:41.222Z,38.63
2019-03-22T02:50:18.653Z,36.27
2019-03-22T02:52:42.099Z,38.90
2019-03-22T02:55:11.429Z,36.67
2019-03-22T02:57:40.571Z,38.63
2019-03-22T03:00:12.270Z,39.57
2019-03-22T03:02:40.751Z,38.70
2019-03-22T03:05:10.111Z,39.57
2019-03-22T03:07:38.863Z,39.20
2019-03-22T03:10:10.321Z,40.70
2019-03-22T03:12:38.853Z,39.87
2019-03-22T03:15:13.932Z,39.20
2019-03-22T03:17:42.558Z,39.73
2019-03-22T03:20:13.753Z,41.87
2019-03-22T03:22:42.227Z,38.30
2019-03-22T03:25:11.011Z,39.77
2019-03-22T03:27:39.504Z,37.17
2019-03-22T03:30:11.457Z,39.23
2019-03-22T03:32:40.002Z,40.33
2019-03-22T03:35:09.026Z,41.37
2019-03-22T03:37:38.435Z,36.27
2019-03-22T03:40:14.122Z,37.33
2019-03-22T03:42:42.604Z,38.53
2019-03-22T03:45:34.915Z,35.50
2019-03-22T03:48:05.374Z,35.60
2019-03-22T03:50:34.097Z,35.40
2019-03-22T03:53:02.747Z,35.50
2019-03-22T03:55:31.283Z,36.50
2019-03-22T03:57:59.836Z,37.93
2019-03-22T04:00:28.552Z,36.40
2019-03-22T04:02:57.084Z,36.50
2019-03-22T04:05:25.558Z,37.33
2019-03-22T04:07:54.046Z,36.77
2019-03-22T04:10:22.570Z,38.33
2019-03-22T04:12:51.134Z,41.47
2019-03-22T04:15:19.731Z,41.03
2019-03-22T04:17:51.430Z,39.57
2019-03-22T04:20:19.901Z,40.93
2019-03-22T04:22:48.372Z,37.77
2019-03-22T04:25:17.154Z,40.97
2019-03-22T04:27:45.700Z,42.40
2019-03-22T04:30:14.415Z,42.47
2019-03-22T04:32:42.970Z,41.17
2019-03-22T04:35:11.793Z,39.57
2019-03-22T04:37:40.265Z,41.67
2019-03-22T04:40:27.362Z,39.50
2019-03-22T04:42:55.905Z,35.60
2019-03-22T04:45:26.513Z,39.33
2019-03-22T04:48:00.120Z,38.03
2019-03-22T04:50:30.425Z,37.80
2019-03-22T04:52:59.953Z,38.60
2019-03-22T04:55:30.060Z,40.20
2019-03-22T04:57:59.671Z,36.77
2019-03-22T05:00:28.986Z,39.17
2019-03-22T05:02:58.228Z,38.63
2019-03-22T05:05:26.772Z,40.07
2019-03-22T05:07:55.328Z,44.23
2019-03-22T05:10:25.532Z,37.80
2019-03-22T05:12:56.916Z,43.07
2019-03-22T05:15:25.812Z,38.70
2019-03-22T05:17:54.642Z,37.87
2019-03-22T05:20:23.680Z,38.50
2019-03-22T05:22:54.100Z,36.87
2019-03-22T05:25:24.112Z,39.60
2019-03-22T05:27:53.523Z,38.87
2019-03-22T05:30:37.143Z,40.60
2019-03-22T05:33:05.601Z,42.30
2019-03-22T05:35:34.085Z,45.53
2019-03-22T05:38:02.557Z,39.67
2019-03-22T05:40:31.050Z,46.67
2019-03-22T05:42:59.524Z,44.50
2019-03-22T05:45:27.986Z,45.63
2019-03-22T05:47:56.466Z,41.40
2019-03-22T05:50:24.938Z,40.07
2019-03-22T05:52:53.419Z,41.67
2019-03-22T05:55:21.898Z,42.10
2019-03-22T05:57:50.393Z,39.20
2019-03-22T06:00:19.017Z,42.67
2019-03-22T06:02:47.539Z,44.43
2019-03-22T06:05:16.017Z,41.17
2019-03-22T06:07:44.484Z,38.77
2019-03-22T06:10:12.972Z,42.37
2019-03-22T06:12:41.463Z,40.10
2019-03-22T06:15:10.575Z,43.07
2019-03-22T06:17:50.903Z,37.98
2019-03-22T06:20:09.954Z,42.70
2019-03-22T06:22:38.435Z,45.30
2019-03-22T06:25:07.177Z,38.78
2019-03-22T06:27:35.649Z,40.00
2019-03-22T06:30:06.464Z,39.40
2019-03-22T06:32:35.661Z,41.65
2019-03-22T06:35:06.433Z,38.50
2019-03-22T06:37:35.521Z,40.55
2019-03-22T06:40:06.194Z,41.00
2019-03-22T06:42:35.238Z,37.10
2019-03-22T06:45:05.727Z,41.55
2019-03-22T06:47:34.846Z,39.58
2019-03-22T06:50:05.849Z,38.85
2019-03-22T06:52:34.919Z,39.58
2019-03-22T06:55:05.619Z,37.50
2019-03-22T06:57:34.748Z,39.13
2019-03-22T07:00:10.111Z,41.58
2019-03-22T07:02:39.485Z,46.37
2019-03-22T07:05:08.926Z,38.08
2019-03-22T07:07:38.023Z,37.73
2019-03-22T07:10:08.205Z,35.73
2019-03-22T07:12:37.268Z,37.23
2019-03-22T07:15:07.155Z,35.03
2019-03-22T07:17:36.228Z,37.75
2019-03-22T07:20:06.506Z,38.60
2019-03-22T07:22:35.575Z,38.13
2019-03-22T07:25:07.250Z,37.58
2019-03-22T07:27:36.308Z,38.53
2019-03-22T07:30:18.113Z,39.73
2019-03-22T07:32:39.012Z,39.50
2019-03-22T07:35:08.332Z,38.25
2019-03-22T07:37:37.412Z,37.75
2019-03-22T07:40:07.677Z,36.65
2019-03-22T07:42:36.742Z,40.58
2019-03-22T07:45:07.231Z,42.70
2019-03-22T07:47:36.398Z,37.13
2019-03-22T07:50:10.869Z,36.42
2019-03-22T07:52:40.019Z,40.70
2019-03-22T07:55:09.255Z,40.90
2019-03-22T07:57:38.326Z,42.35
2019-03-22T08:00:10.106Z,37.67
2019-03-22T08:02:39.234Z,41.98
2019-03-22T08:05:08.627Z,45.40
2019-03-22T08:07:37.788Z,39.85
2019-03-22T08:10:08.306Z,43.28
2019-03-22T08:12:37.371Z,40.30
2019-03-22T08:15:08.672Z,39.85
2019-03-22T08:17:38.031Z,41.92
2019-03-22T08:20:09.032Z,42.50
2019-03-22T08:22:38.129Z,35.43
2019-03-22T08:25:07.393Z,41.60
2019-03-22T08:27:36.478Z,42.80
2019-03-22T08:30:06.265Z,37.83
2019-03-22T08:32:35.327Z,43.30
2019-03-22T08:35:04.638Z,44.23
2019-03-22T08:37:33.695Z,36.50
2019-03-22T08:40:02.930Z,39.13
2019-03-22T08:42:31.993Z,37.90
2019-03-22T08:45:01.053Z,42.10
2019-03-22T08:47:34.216Z,40.17
2019-03-22T08:50:00.957Z,38.35
2019-03-22T08:52:30.114Z,40.73
2019-03-22T08:54:59.181Z,38.48
2019-03-22T08:57:28.302Z,41.00
2019-03-22T08:59:57.383Z,39.53
2019-03-22T09:02:26.522Z,42.95
2019-03-22T09:04:55.591Z,40.00
2019-03-22T09:07:24.852Z,38.10
2019-03-22T09:09:53.961Z,40.58
2019-03-22T09:12:23.078Z,42.75
2019-03-22T09:14:52.142Z,42.38
2019-03-22T09:17:21.197Z,41.02
2019-03-22T09:19:51.284Z,40.48
2019-03-22T09:22:20.494Z,42.53
2019-03-22T09:24:49.560Z,42.27
2019-03-22T09:27:18.788Z,39.98
2019-03-22T09:29:47.889Z,42.62
2019-03-22T09:32:17.009Z,36.00
2019-03-22T09:34:46.232Z,42.67
2019-03-22T09:37:15.298Z,38.65
2019-03-22T09:39:44.499Z,37.53
2019-03-22T09:42:13.698Z,35.28
2019-03-22T09:44:44.280Z,36.55
2019-03-22T09:47:16.420Z,40.83
2019-03-22T09:49:44.443Z,48.23
2019-03-22T09:52:13.601Z,39.33
2019-03-22T09:54:42.767Z,42.98
2019-03-22T09:57:11.878Z,43.50
2019-03-22T09:59:40.982Z,39.80
2019-03-22T10:02:10.115Z,41.60
2019-03-22T10:04:39.232Z,44.40
2019-03-22T10:07:08.356Z,42.48
2019-03-22T10:09:37.457Z,40.95
2019-03-22T10:12:06.527Z,44.63
2019-03-22T10:14:35.741Z,44.55
2019-03-22T10:17:04.854Z,39.05
2019-03-22T10:19:33.951Z,45.48
2019-03-22T10:22:03.100Z,46.00
2019-03-22T10:24:32.269Z,43.98
2019-03-22T10:27:01.368Z,42.48
2019-03-22T10:29:30.520Z,42.78
2019-03-22T10:31:59.589Z,46.18
2019-03-22T10:34:28.658Z,45.95
2019-03-22T10:36:57.718Z,43.38
2019-03-22T10:39:26.798Z,43.15
2019-03-22T10:41:55.981Z,46.35
2019-03-22T10:44:25.081Z,47.80
2019-03-22T10:46:54.295Z,50.50
2019-03-22T10:49:23.423Z,46.37
2019-03-22T10:51:57.306Z,50.17
2019-03-22T10:54:23.284Z,48.13
2019-03-22T10:56:52.362Z,45.75
2019-03-22T10:59:21.468Z,47.95
2019-03-22T11:02:02.573Z,53.87
2019-03-22T11:04:21.326Z,55.28
2019-03-22T11:06:50.443Z,53.20
2019-03-22T11:09:19.523Z,46.73
2019-03-22T11:11:48.603Z,49.27
2019-03-22T11:14:17.645Z,50.30
2019-03-22T11:16:46.709Z,45.75
2019-03-22T11:19:15.759Z,50.58
2019-03-22T11:21:44.815Z,47.90
2019-03-22T11:24:14.454Z,47.70
2019-03-22T11:26:43.541Z,47.78
2019-03-22T11:29:12.658Z,50.60
2019-03-22T11:31:41.812Z,48.95
2019-03-22T11:34:10.847Z,50.80
2019-03-22T11:36:39.977Z,50.80
2019-03-22T11:39:15.849Z,45.48
2019-03-22T11:41:43.866Z,53.80
2019-03-22T11:44:12.934Z,44.40
2019-03-22T11:46:42.006Z,48.98
2019-03-22T11:49:11.221Z,48.33
2019-03-22T11:51:40.406Z,48.42
2019-03-22T11:54:09.566Z,50.08
2019-03-22T11:56:38.651Z,48.10
2019-03-22T11:59:07.701Z,46.50
2019-03-22T12:01:36.770Z,47.40
2019-03-22T12:04:05.831Z,49.67
2019-03-22T12:06:35.068Z,44.20
2019-03-22T12:09:07.571Z,44.63
2019-03-22T12:11:36.638Z,49.67
2019-03-22T12:14:05.762Z,52.10
2019-03-22T12:16:34.820Z,50.05
2019-03-22T12:19:04.047Z,50.33
2019-03-22T12:21:33.177Z,49.80
2019-03-22T12:24:02.579Z,53.63
2019-03-22T12:26:32.038Z,51.37
2019-03-22T12:29:01.167Z,53.38
2019-03-22T12:31:30.232Z,50.55
2019-03-22T12:33:59.450Z,48.87
2019-03-22T12:36:28.515Z,47.53
2019-03-22T12:38:57.577Z,52.13
2019-03-22T12:41:26.633Z,52.13
2019-03-22T12:43:55.701Z,48.58
2019-03-22T12:46:24.735Z,50.80
2019-03-22T12:48:53.805Z,52.85
2019-03-22T12:51:22.868Z,45.55
2019-03-22T12:53:51.931Z,52.67
2019-03-22T12:56:21.073Z,48.78
2019-03-22T12:58:50.138Z,56.40
2019-03-22T13:01:19.175Z,51.55
2019-03-22T13:03:48.327Z,47.90
2019-03-22T13:06:17.378Z,48.23
2019-03-22T13:08:46.444Z,46.65
2019-03-22T13:11:15.506Z,45.20
2019-03-22T13:13:44.562Z,49.80
2019-03-22T13:16:13.634Z,48.40
2019-03-22T13:18:50.077Z,48.05
2019-03-22T13:21:13.498Z,48.42
2019-03-22T13:23:42.661Z,45.38
2019-03-22T13:26:11.732Z,47.15
2019-03-22T13:28:40.794Z,45.23
2019-03-22T13:31:11.632Z,47.73
2019-03-22T13:33:40.677Z,45.90
2019-03-22T13:36:09.744Z,45.92
2019-03-22T13:38:38.938Z,42.30
2019-03-22T13:41:08.102Z,41.45
2019-03-22T13:43:37.228Z,45.60
2019-03-22T13:46:06.383Z,41.20
2019-03-22T13:48:35.439Z,44.05
2019-03-22T13:51:04.570Z,43.30
2019-03-22T13:53:33.656Z,48.40
2019-03-22T13:56:02.703Z,44.20
2019-03-22T13:58:31.768Z,42.98
2019-03-22T14:01:00.848Z,46.28
2019-03-22T14:03:29.910Z,45.80
2019-03-22T14:05:59.062Z,45.45
2019-03-22T14:08:28.128Z,44.77
2019-03-22T14:10:57.184Z,42.98
2019-03-22T14:13:26.260Z,43.52
2019-03-22T14:15:55.313Z,43.75
2019-03-22T14:18:24.380Z,42.85
2019-03-22T14:20:53.454Z,42.78
2019-03-22T14:23:22.516Z,44.20
2019-03-22T14:25:51.602Z,42.27
2019-03-22T14:28:20.667Z,39.20
2019-03-22T14:30:49.811Z,39.10
2019-03-22T14:33:18.863Z,39.33
2019-03-22T14:35:47.933Z,43.95
2019-03-22T14:38:16.994Z,42.03
2019-03-22T14:40:46.074Z,43.90
2019-03-22T14:43:15.130Z,45.20
2019-03-22T14:45:44.203Z,40.85
2019-03-22T14:48:13.312Z,44.03
2019-03-22T14:50:42.359Z,41.08
2019-03-22T14:53:11.411Z,36.77
2019-03-22T14:55:40.185Z,41.67
2019-03-22T14:58:08.964Z,35.93
2019-03-22T15:00:37.801Z,37.30
2019-03-22T15:03:08.268Z,40.43
2019-03-22T15:05:37.037Z,36.20
2019-03-22T15:08:05.799Z,37.03
2019-03-22T15:10:34.565Z,38.50
2019-03-22T15:13:03.323Z,37.67
2019-03-22T15:15:39.529Z,34.13
2019-03-22T15:18:18.741Z,34.00
2019-03-22T15:20:51.922Z,36.13
2019-03-22T15:23:28.218Z,36.10
2019-03-22T15:26:04.672Z,32.17
2019-03-22T15:28:35.071Z,32.13
2019-03-22T15:31:17.448Z,34.43
2019-03-22T15:33:50.370Z,37.17
2019-03-22T15:36:37.463Z,37.37
2019-03-22T15:39:09.661Z,31.37
2019-03-22T15:41:38.550Z,34.03
2019-03-22T15:44:07.348Z,32.47
2019-03-22T15:46:36.365Z,31.03
2019-03-22T15:49:05.212Z,31.03
2019-03-22T15:51:33.996Z,32.43
2019-03-22T15:54:03.021Z,32.80
2019-03-22T15:56:31.848Z,32.23
2019-03-22T15:59:00.691Z,32.67
2019-03-22T16:01:29.541Z,30.83
2019-03-22T16:03:58.365Z,32.40
2019-03-22T16:06:27.190Z,28.20
2019-03-22T16:08:56.006Z,27.17
2019-03-22T16:11:24.787Z,30.77
2019-03-22T16:13:53.545Z,30.30
2019-03-22T16:16:22.303Z,32.20
2019-03-22T16:18:51.070Z,31.93
2019-03-22T16:21:20.124Z,29.80
2019-03-22T16:23:49.202Z,30.92
2019-03-22T16:26:18.351Z,30.92
2019-03-22T16:28:47.491Z,30.88
2019-03-22T16:31:16.559Z,29.35
2019-03-22T16:33:53.996Z,34.92
2019-03-22T16:36:16.401Z,35.63
2019-03-22T16:38:45.443Z,34.83
2019-03-22T16:41:14.621Z,33.98
2019-03-22T16:43:43.686Z,36.63
2019-03-22T16:46:14.220Z,34.03
2019-03-22T16:48:43.479Z,36.30
2019-03-22T16:51:12.542Z,37.93
2019-03-22T16:53:41.610Z,35.33
2019-03-22T16:56:13.567Z,37.70
2019-03-22T16:58:42.630Z,38.53
2019-03-22T17:01:11.837Z,40.78
2019-03-22T17:03:40.942Z,45.70
2019-03-22T17:06:10.124Z,39.75
2019-03-22T17:08:39.204Z,43.60
2019-03-22T17:11:08.346Z,43.20
2019-03-22T17:13:37.430Z,41.92
2019-03-22T17:16:06.497Z,41.75
2019-03-22T17:18:35.570Z,45.88
2019-03-22T17:21:04.647Z,50.70
2019-03-22T17:23:33.725Z,49.18
2019-03-22T17:26:02.772Z,50.25
2019-03-22T17:28:31.855Z,54.23
2019-03-22T17:31:00.908Z,52.27
2019-03-22T17:33:30.121Z,53.52
2019-03-22T17:35:59.241Z,51.15
2019-03-22T17:38:28.283Z,51.63
2019-03-22T17:40:57.343Z,51.50
2019-03-22T17:43:26.402Z,54.77
2019-03-22T17:45:55.461Z,52.48
2019-03-22T17:48:24.500Z,53.42
2019-03-22T17:50:53.567Z,53.35
2019-03-22T17:53:24.441Z,51.63
2019-03-22T17:55:53.545Z,55.15
2019-03-22T17:58:22.605Z,54.27
2019-03-22T18:00:51.904Z,52.98
2019-03-22T18:03:20.950Z,50.98
2019-03-22T18:05:50.024Z,52.95
2019-03-22T18:08:19.092Z,52.05
2019-03-22T18:10:48.143Z,51.63
2019-03-22T18:13:17.181Z,56.65
2019-03-22T18:15:46.263Z,54.70
2019-03-22T18:18:15.400Z,54.73
2019-03-22T18:20:44.449Z,55.33
2019-03-22T18:23:13.523Z,61.40
2019-03-22T18:25:42.655Z,55.73
2019-03-22T18:28:11.703Z,55.78
2019-03-22T18:30:40.783Z,58.68
2019-03-22T18:33:09.836Z,53.33
2019-03-22T18:35:38.895Z,57.65
2019-03-22T18:38:07.962Z,54.67
2019-03-22T18:40:37.040Z,60.08
2019-03-22T18:43:06.199Z,57.40
2019-03-22T18:45:35.317Z,59.33
2019-03-22T18:48:04.364Z,55.43
2019-03-22T18:50:33.506Z,58.58
2019-03-22T18:53:02.597Z,61.80
2019-03-22T18:55:31.657Z,57.53
2019-03-22T18:58:00.742Z,61.20
2019-03-22T19:00:29.796Z,63.85
2019-03-22T19:02:58.860Z,56.95
2019-03-22T19:05:27.982Z,58.68
2019-03-22T19:07:57.049Z,59.13
2019-03-22T19:10:26.103Z,60.58
2019-03-22T19:12:55.177Z,63.50
2019-03-22T19:15:24.241Z,61.90
2019-03-22T19:17:53.299Z,59.67
2019-03-22T19:20:22.350Z,65.47
2019-03-22T19:22:51.407Z,61.63
2019-03-22T19:25:20.465Z,61.00
2019-03-22T19:27:49.621Z,62.55
2019-03-22T19:30:18.880Z,57.25
2019-03-22T19:32:47.953Z,62.33
2019-03-22T19:35:17.081Z,56.35
2019-03-22T19:37:46.138Z,61.00
2019-03-22T19:40:16.240Z,55.35
2019-03-22T19:42:45.394Z,57.83
2019-03-22T19:45:16.841Z,61.53
2019-03-22T19:47:46.046Z,58.85
2019-03-22T19:50:16.537Z,61.13
2019-03-22T19:52:45.695Z,56.42
2019-03-22T19:55:14.756Z,58.55
2019-03-22T19:57:43.814Z,56.23
2019-03-22T20:00:15.682Z,59.25
2019-03-22T20:02:44.749Z,61.05
2019-03-22T20:05:31.929Z,61.92
2019-03-22T20:08:02.176Z,58.02
2019-03-22T20:10:31.263Z,62.17
2019-03-22T20:13:00.371Z,61.33
2019-03-22T20:15:29.421Z,55.70
2019-03-22T20:17:58.516Z,62.23
2019-03-22T20:20:27.569Z,60.67
2019-03-22T20:22:56.746Z,58.10
2019-03-22T20:25:25.791Z,62.70
2019-03-22T20:27:54.869Z,60.35
2019-03-22T20:30:23.952Z,59.95
2019-03-22T20:32:53.018Z,56.58
2019-03-22T20:35:22.081Z,60.55
2019-03-22T20:37:51.146Z,70.08
2019-03-22T20:40:20.362Z,60.90
2019-03-22T20:42:49.428Z,61.02
2019-03-22T20:45:23.921Z,64.40
2019-03-22T20:47:49.366Z,62.98
2019-03-22T20:50:18.466Z,65.40
2019-03-22T20:52:47.518Z,60.95
2019-03-22T20:55:16.681Z,63.75
2019-03-22T20:57:45.736Z,61.25
2019-03-22T21:00:17.124Z,63.48
2019-03-22T21:02:46.254Z,61.02
2019-03-22T21:05:26.170Z,63.42
2019-03-22T21:07:46.109Z,58.10
2019-03-22T21:10:15.454Z,61.30
2019-03-22T21:12:44.505Z,64.40
2019-03-22T21:15:23.763Z,63.95
2019-03-22T21:17:44.770Z,62.27
2019-03-22T21:20:13.985Z,64.12
2019-03-22T21:22:43.044Z,67.80
2019-03-22T21:25:12.554Z,59.90
2019-03-22T21:27:41.611Z,64.75
2019-03-22T21:30:14.833Z,65.70
2019-03-22T21:32:45.518Z,67.78
2019-03-22T21:35:22.305Z,60.12
2019-03-22T21:37:45.705Z,63.05
2019-03-22T21:40:14.853Z,67.30
2019-03-22T21:42:43.946Z,64.90
2019-03-22T21:45:13.508Z,62.85
2019-03-22T21:47:42.592Z,68.75
2019-03-22T21:50:11.812Z,61.98
2019-03-22T21:52:40.893Z,64.60
2019-03-22T21:55:10.229Z,62.05
2019-03-22T21:57:39.293Z,59.85
2019-03-22T22:00:10.855Z,62.17
2019-03-22T22:02:39.904Z,55.95
2019-03-22T22:05:09.423Z,60.98
2019-03-22T22:07:38.549Z,61.68
2019-03-22T22:10:08.649Z,61.70
2019-03-22T22:12:37.999Z,59.08
2019-03-22T22:15:11.695Z,65.78
2019-03-22T22:17:43.489Z,67.10
2019-03-22T22:20:12.813Z,64.03
2019-03-22T22:22:42.103Z,55.95
2019-03-22T22:25:11.467Z,61.28
2019-03-22T22:27:40.537Z,59.50
2019-03-22T22:30:11.745Z,65.57
2019-03-22T22:32:40.827Z,64.10
2019-03-22T22:35:10.459Z,68.70
2019-03-22T22:37:39.522Z,67.35
2019-03-22T22:40:10.795Z,69.82
2019-03-22T22:42:39.884Z,64.90
2019-03-22T22:45:10.413Z,60.70
2019-03-22T22:47:39.650Z,63.55
2019-03-22T22:50:10.764Z,65.22
2019-03-22T22:52:39.997Z,62.70
2019-03-22T22:55:09.547Z,65.12
2019-03-22T22:57:38.630Z,62.80
2019-03-22T23:00:13.662Z,64.07
2019-03-22T23:02:43.667Z,60.33
2019-03-22T23:05:12.859Z,61.77
2019-03-22T23:07:42.015Z,62.45
2019-03-22T23:10:12.769Z,63.35
2019-03-22T23:12:43.133Z,64.03
2019-03-22T23:15:12.602Z,66.72
2019-03-22T23:17:41.708Z,66.45
2019-03-22T23:20:11.225Z,62.75
2019-03-22T23:22:40.414Z,64.53
2019-03-22T23:25:09.823Z,65.78
2019-03-22T23:27:38.896Z,61.45
2019-03-22T23:30:10.486Z,63.58
2019-03-22T23:32:39.846Z,64.77
2019-03-22T23:35:09.256Z,65.17
2019-03-22T23:37:38.328Z,65.67
2019-03-22T23:40:08.439Z,68.07
2019-03-22T23:42:37.505Z,61.33
2019-03-22T23:45:08.101Z,64.95
2019-03-22T23:47:37.168Z,60.85
2019-03-22T23:50:07.659Z,59.63
2019-03-22T23:52:36.724Z,56.88
2019-03-22T23:55:06.726Z,62.53
2019-03-22T23:57:35.855Z,57.73
